createdAt,value
2023-03-13T01:45:48.834Z,28.74
2023-03-13T01:46:48.903Z,28.67
2023-03-13T01:47:48.946Z,28.68
2023-03-13T01:48:49.016Z,28.64
2023-03-13T01:49:49.065Z,28.64
2023-03-13T01:50:49.122Z,28.64
2023-03-13T01:51:49.171Z,28.66
2023-03-13T01:52:49.209Z,28.66
2023-03-13T01:53:49.245Z,28.57
2023-03-13T01:54:49.312Z,28.64
2023-03-13T01:55:49.368Z,28.66
2023-03-13T01:56:49.435Z,28.67
2023-03-13T01:57:49.492Z,28.66
2023-03-13T01:58:49.542Z,28.64
2023-03-13T01:59:49.609Z,28.68
2023-03-13T02:00:49.671Z,28.61
2023-03-13T02:01:49.805Z,28.64
2023-03-13T02:02:49.797Z,28.68
2023-03-13T02:03:49.852Z,28.65
2023-03-13T02:04:49.888Z,28.63
2023-03-13T02:05:49.954Z,28.67
2023-03-13T02:06:50.024Z,28.63
2023-03-13T02:07:50.078Z,28.69
2023-03-13T02:08:50.132Z,28.60
2023-03-13T02:09:50.158Z,28.64
2023-03-13T02:10:50.212Z,28.64
2023-03-13T02:11:50.255Z,28.66
2023-03-13T02:12:50.313Z,28.64
2023-03-13T02:13:50.364Z,28.63
2023-03-13T02:14:50.429Z,28.63
2023-03-13T02:15:50.529Z,28.64
2023-03-13T02:16:50.543Z,28.66
2023-03-13T02:17:50.605Z,28.63
2023-03-13T02:18:50.666Z,28.61
2023-03-13T02:19:50.722Z,28.65
2023-03-13T02:20:50.794Z,28.67
2023-03-13T02:21:50.844Z,28.63
2023-03-13T02:22:50.900Z,28.67
2023-03-13T02:23:50.948Z,28.68
2023-03-13T02:24:50.995Z,28.67
2023-03-13T02:25:51.046Z,28.61
2023-03-13T02:26:51.101Z,28.66
2023-03-13T02:27:51.183Z,28.64
2023-03-13T02:28:51.216Z,28.66
2023-03-13T02:29:51.282Z,28.67
2023-03-13T02:30:51.342Z,28.64
2023-03-13T02:31:51.435Z,28.60
2023-03-13T02:32:51.553Z,28.64
2023-03-13T02:33:51.598Z,28.66
2023-03-13T02:34:51.578Z,28.67
2023-03-13T02:35:51.736Z,28.66
2023-03-13T02:36:51.688Z,28.63
2023-03-13T02:37:51.753Z,28.64
2023-03-13T02:38:51.831Z,28.65
2023-03-13T02:39:51.865Z,28.65
2023-03-13T02:40:51.935Z,28.68
2023-03-13T02:41:51.977Z,28.64
2023-03-13T02:42:52.027Z,28.64
2023-03-13T02:43:52.086Z,28.65
2023-03-13T02:44:52.173Z,28.67
2023-03-13T02:45:52.204Z,28.64
2023-03-13T02:46:52.396Z,28.61
2023-03-13T02:47:52.335Z,28.64
2023-03-13T02:48:52.385Z,28.60
2023-03-13T02:49:52.456Z,28.64
2023-03-13T02:50:52.505Z,28.63
2023-03-13T02:51:52.563Z,28.58
2023-03-13T02:52:52.621Z,28.56
2023-03-13T02:53:52.692Z,28.58
2023-03-13T02:54:52.727Z,28.61
2023-03-13T02:55:52.781Z,28.57
2023-03-13T02:56:52.831Z,28.55
2023-03-13T02:57:52.871Z,28.55
2023-03-13T02:58:52.926Z,28.50
2023-03-13T02:59:53.312Z,28.54
2023-03-13T03:00:53.085Z,28.53
2023-03-13T03:01:53.061Z,28.56
2023-03-13T03:02:53.105Z,28.56
2023-03-13T03:03:53.298Z,28.56
2023-03-13T03:04:53.205Z,28.53
2023-03-13T03:05:53.247Z,28.54
2023-03-13T03:06:53.295Z,28.53
2023-03-13T03:07:53.351Z,28.53
2023-03-13T03:08:53.379Z,28.54
2023-03-13T03:09:53.421Z,28.50
2023-03-13T03:10:53.471Z,28.58
2023-03-13T03:11:53.519Z,28.56
2023-03-13T03:12:53.569Z,28.49
2023-03-13T03:13:53.607Z,28.53
2023-03-13T03:14:53.648Z,28.49
2023-03-13T03:15:53.695Z,28.45
2023-03-13T03:16:53.749Z,28.45
2023-03-13T03:17:53.837Z,28.50
2023-03-13T03:18:53.905Z,28.49
2023-03-13T03:19:53.879Z,28.50
2023-03-13T03:20:53.916Z,28.45
2023-03-13T03:21:53.964Z,28.47
2023-03-13T03:22:54.009Z,28.49
2023-03-13T03:23:54.052Z,28.42
2023-03-13T03:24:54.106Z,28.46
2023-03-13T03:25:54.142Z,28.46
2023-03-13T03:26:54.200Z,28.41
2023-03-13T03:27:54.245Z,28.43
2023-03-13T03:28:54.273Z,28.43
2023-03-13T03:29:54.316Z,28.40
2023-03-13T03:30:54.360Z,28.47
2023-03-13T03:31:54.500Z,28.40
2023-03-13T03:32:54.544Z,28.42
2023-03-13T03:33:54.498Z,28.46
2023-03-13T03:34:54.562Z,28.43
2023-03-13T03:35:54.641Z,28.42
2023-03-13T03:36:54.692Z,28.46
2023-03-13T03:37:54.737Z,28.45
2023-03-13T03:38:54.798Z,28.46
2023-03-13T03:39:54.834Z,28.49
2023-03-13T03:40:54.896Z,28.45
2023-03-13T03:41:54.944Z,28.40
2023-03-13T03:42:55.010Z,28.46
2023-03-13T03:43:55.052Z,28.42
2023-03-13T03:44:55.102Z,28.45
2023-03-13T03:45:55.356Z,28.41
2023-03-13T03:46:55.241Z,28.41
2023-03-13T03:47:55.260Z,28.40
2023-03-13T03:48:55.353Z,28.41
2023-03-13T03:49:55.374Z,28.40
2023-03-13T03:50:55.427Z,28.36
2023-03-13T03:51:55.479Z,28.37
2023-03-13T03:52:55.528Z,28.37
2023-03-13T03:53:55.590Z,28.33
2023-03-13T03:54:55.645Z,28.34
2023-03-13T03:55:55.691Z,28.32
2023-03-13T03:56:55.754Z,28.36
2023-03-13T03:57:55.794Z,28.32
2023-03-13T03:58:55.846Z,28.39
2023-03-13T03:59:55.873Z,28.32
2023-03-13T04:00:55.943Z,28.33
2023-03-13T04:01:56.041Z,28.26
2023-03-13T04:02:56.086Z,28.32
2023-03-13T04:03:56.074Z,28.35
2023-03-13T04:04:56.110Z,28.31
2023-03-13T04:05:56.156Z,28.28
2023-03-13T04:06:56.224Z,28.26
2023-03-13T04:07:56.263Z,28.23
2023-03-13T04:08:56.302Z,28.28
2023-03-13T04:09:56.355Z,28.26
2023-03-13T04:10:56.399Z,28.24
2023-03-13T04:11:56.439Z,28.23
2023-03-13T04:12:56.488Z,28.25
2023-03-13T04:13:56.544Z,28.24
2023-03-13T04:14:56.602Z,28.23
2023-03-13T04:15:56.634Z,28.18
2023-03-13T04:16:56.744Z,28.18
2023-03-13T04:17:56.749Z,28.21
2023-03-13T04:18:56.800Z,28.21
2023-03-13T04:19:56.870Z,28.20
2023-03-13T04:20:56.927Z,28.17
2023-03-13T04:21:56.979Z,28.14
2023-03-13T04:22:57.042Z,28.18
2023-03-13T04:23:57.081Z,28.18
2023-03-13T04:24:57.141Z,28.18
2023-03-13T04:25:57.204Z,28.15
2023-03-13T04:26:57.263Z,28.15
2023-03-13T04:27:57.334Z,28.18
2023-03-13T04:28:57.382Z,28.13
2023-03-13T04:29:57.424Z,28.15
2023-03-13T04:30:57.598Z,28.13
2023-03-13T04:31:57.536Z,28.13
2023-03-13T04:32:57.636Z,28.15
2023-03-13T04:33:57.615Z,28.11
2023-03-13T04:34:57.733Z,28.12
2023-03-13T04:35:57.744Z,28.09
2023-03-13T04:36:57.778Z,28.15
2023-03-13T04:37:57.854Z,28.13
2023-03-13T04:38:57.898Z,28.12
2023-03-13T04:39:57.957Z,28.13
2023-03-13T04:40:58.013Z,28.12
2023-03-13T04:41:58.047Z,28.12
2023-03-13T04:42:58.101Z,28.11
2023-03-13T04:43:58.165Z,28.12
2023-03-13T04:44:58.218Z,28.11
2023-03-13T04:45:58.282Z,28.09
2023-03-13T04:46:58.348Z,28.07
2023-03-13T04:47:58.399Z,28.12
2023-03-13T04:48:58.455Z,28.08
2023-03-13T04:49:58.506Z,28.11
2023-03-13T04:50:58.568Z,28.11
2023-03-13T04:51:58.618Z,28.06
2023-03-13T04:52:58.680Z,28.07
2023-03-13T04:53:58.757Z,28.08
2023-03-13T04:54:58.816Z,28.02
2023-03-13T04:55:58.877Z,28.05
2023-03-13T04:56:58.926Z,28.04
2023-03-13T04:57:59.005Z,28.04
2023-03-13T04:58:59.051Z,28.03
2023-03-13T04:59:59.112Z,28.07
2023-03-13T05:00:59.171Z,28.04
2023-03-13T05:01:59.238Z,28.07
2023-03-13T05:02:59.299Z,28.04
2023-03-13T05:03:59.357Z,28.04
2023-03-13T05:04:59.457Z,28.07
2023-03-13T05:05:59.465Z,28.07
2023-03-13T05:06:59.542Z,28.04
2023-03-13T05:07:59.598Z,28.02
2023-03-13T05:08:59.658Z,28.04
2023-03-13T05:09:59.724Z,28.02
2023-03-13T05:10:59.783Z,28.01
2023-03-13T05:11:59.851Z,28.04
2023-03-13T05:12:59.904Z,27.98
2023-03-13T05:13:59.969Z,28.01
2023-03-13T05:15:00.024Z,28.01
2023-03-13T05:16:00.121Z,27.99
2023-03-13T05:17:00.142Z,28.01
2023-03-13T05:18:00.221Z,27.95
2023-03-13T05:19:00.251Z,27.98
2023-03-13T05:20:00.382Z,27.88
2023-03-13T05:21:00.365Z,27.91
2023-03-13T05:22:00.415Z,27.90
2023-03-13T05:23:00.471Z,27.93
2023-03-13T05:24:00.519Z,27.95
2023-03-13T05:25:00.579Z,27.98
2023-03-13T05:26:00.624Z,27.92
2023-03-13T05:27:00.688Z,27.92
2023-03-13T05:28:00.747Z,27.96
2023-03-13T05:29:00.798Z,27.98
2023-03-13T05:30:01.158Z,27.96
2023-03-13T05:31:00.976Z,27.93
2023-03-13T05:32:00.976Z,27.92
2023-03-13T05:33:01.065Z,27.94
2023-03-13T05:34:01.091Z,27.95
2023-03-13T05:35:01.200Z,27.96
2023-03-13T05:36:01.229Z,27.95
2023-03-13T05:37:01.252Z,27.95
2023-03-13T05:38:01.305Z,27.94
2023-03-13T05:39:01.367Z,27.92
2023-03-13T05:40:01.412Z,27.95
2023-03-13T05:41:01.466Z,27.94
2023-03-13T05:42:01.519Z,27.91
2023-03-13T05:43:01.566Z,27.96
2023-03-13T05:44:01.621Z,27.96
2023-03-13T05:45:01.670Z,27.95
2023-03-13T05:46:01.809Z,27.95
2023-03-13T05:47:03.986Z,27.91
2023-03-13T05:48:01.842Z,27.90
2023-03-13T05:49:01.871Z,27.91
2023-03-13T05:50:01.915Z,27.94
2023-03-13T05:51:01.964Z,27.93
2023-03-13T05:52:02.014Z,27.91
2023-03-13T05:53:02.082Z,27.91
2023-03-13T05:54:02.126Z,27.88
2023-03-13T05:55:02.167Z,27.95
2023-03-13T05:56:02.213Z,27.87
2023-03-13T05:57:02.273Z,27.87
2023-03-13T05:58:02.318Z,27.86
2023-03-13T05:59:02.358Z,27.87
2023-03-13T06:00:02.415Z,27.86
2023-03-13T06:01:02.468Z,27.88
2023-03-13T06:02:02.528Z,27.83
2023-03-13T06:03:02.584Z,27.85
2023-03-13T06:04:02.774Z,27.85
2023-03-13T06:05:02.704Z,27.86
2023-03-13T06:06:02.744Z,27.87
2023-03-13T06:07:02.797Z,27.85
2023-03-13T06:08:02.847Z,27.87
2023-03-13T06:09:02.934Z,27.87
2023-03-13T06:10:02.950Z,27.83
2023-03-13T06:11:03.002Z,27.88
2023-03-13T06:12:03.056Z,27.88
2023-03-13T06:13:17.261Z,27.87
2023-03-13T06:14:04.122Z,27.91
2023-03-13T06:15:03.093Z,27.90
2023-03-13T06:16:03.258Z,27.87
2023-03-13T06:17:03.070Z,27.90
2023-03-13T06:18:03.065Z,27.87
2023-03-13T06:19:03.069Z,27.90
2023-03-13T06:20:03.043Z,27.88
2023-03-13T06:21:03.029Z,27.91
2023-03-13T06:22:03.015Z,27.93
2023-03-13T06:23:03.020Z,28.01
2023-03-13T06:24:03.076Z,28.14
2023-03-13T06:25:03.135Z,28.23
2023-03-13T06:26:03.188Z,28.33
2023-03-13T06:27:03.241Z,28.56
2023-03-13T06:28:03.295Z,28.96
2023-03-13T06:29:03.332Z,29.06
2023-03-13T06:30:03.387Z,29.41
2023-03-13T06:31:03.466Z,29.41
2023-03-13T06:32:03.612Z,29.37
2023-03-13T06:33:03.648Z,29.39
2023-03-13T06:34:03.666Z,29.35
2023-03-13T06:35:03.639Z,29.37
2023-03-13T06:36:03.729Z,29.38
2023-03-13T06:37:03.731Z,29.36
2023-03-13T06:38:03.776Z,29.36
2023-03-13T06:39:03.835Z,29.32
2023-03-13T06:40:03.883Z,29.33
2023-03-13T06:41:04.870Z,29.30
2023-03-13T06:42:04.793Z,29.30
2023-03-13T06:43:03.853Z,29.29
2023-03-13T06:44:03.844Z,29.30
2023-03-13T06:45:03.835Z,29.26
2023-03-13T06:46:03.837Z,29.28
2023-03-13T06:47:03.881Z,29.25
2023-03-13T06:48:03.805Z,29.24
2023-03-13T06:49:03.774Z,29.22
2023-03-13T06:50:03.765Z,29.21
2023-03-13T06:51:03.776Z,29.18
2023-03-13T06:52:03.831Z,29.12
2023-03-13T06:53:03.881Z,29.11
2023-03-13T06:54:03.950Z,29.05
2023-03-13T06:55:03.977Z,29.04
2023-03-13T06:56:04.032Z,29.04
2023-03-13T06:57:04.075Z,28.99
2023-03-13T06:58:04.116Z,29.00
2023-03-13T06:59:04.175Z,28.96
2023-03-13T07:00:04.229Z,28.90
2023-03-13T07:01:04.331Z,28.95
2023-03-13T07:02:04.314Z,28.96
2023-03-13T07:03:04.368Z,28.95
2023-03-13T07:04:04.539Z,28.97
2023-03-13T07:05:04.476Z,28.92
2023-03-13T07:06:04.530Z,28.93
2023-03-13T07:07:04.551Z,28.96
2023-03-13T07:08:04.613Z,28.93
2023-03-13T07:09:04.655Z,28.96
2023-03-13T07:10:04.713Z,28.93
2023-03-13T07:11:04.745Z,28.94
2023-03-13T07:12:04.776Z,28.92
2023-03-13T07:13:04.818Z,28.92
2023-03-13T07:14:15.801Z,28.92
2023-03-13T07:15:05.872Z,28.93
2023-03-13T07:16:04.876Z,28.87
2023-03-13T07:17:04.884Z,28.89
2023-03-13T07:18:04.791Z,28.78
2023-03-13T07:19:04.772Z,28.70
2023-03-13T07:20:04.838Z,28.72
2023-03-13T07:21:04.725Z,29.15
2023-03-13T07:22:04.722Z,28.53
2023-03-13T07:23:04.717Z,24.47
2023-03-13T07:24:04.694Z,22.90
2023-03-13T07:25:04.667Z,22.76
2023-03-13T07:26:04.753Z,24.20
2023-03-13T07:27:07.833Z,24.71
2023-03-13T07:28:04.780Z,24.95
2023-03-13T07:29:04.781Z,25.25
2023-03-13T07:30:04.757Z,25.52
2023-03-13T07:31:04.745Z,25.74
2023-03-13T07:32:04.826Z,26.01
2023-03-13T07:33:04.792Z,26.12
2023-03-13T07:34:04.716Z,26.32
2023-03-13T07:35:04.749Z,26.52
2023-03-13T07:36:04.767Z,26.65
2023-03-13T07:37:04.669Z,26.90
2023-03-13T07:38:04.672Z,26.99
2023-03-13T07:39:04.670Z,27.23
2023-03-13T07:40:04.642Z,27.47
2023-03-13T07:41:04.640Z,27.75
2023-03-13T07:42:04.635Z,27.91
2023-03-13T07:43:04.596Z,28.13
2023-03-13T07:44:04.572Z,28.27
2023-03-13T07:45:04.546Z,28.51
2023-03-13T07:46:04.627Z,28.79
2023-03-13T07:47:04.514Z,28.96
2023-03-13T07:48:05.535Z,29.20
2023-03-13T07:49:04.463Z,29.31
2023-03-13T07:50:04.438Z,29.46
2023-03-13T07:51:04.391Z,29.66
2023-03-13T07:52:04.354Z,28.82
2023-03-13T07:53:06.248Z,27.97
2023-03-13T07:54:04.548Z,27.44
2023-03-13T07:55:04.589Z,26.86
2023-03-13T07:56:04.672Z,27.01
2023-03-13T07:57:04.711Z,27.42
2023-03-13T07:58:04.725Z,27.91
2023-03-13T07:59:05.353Z,28.09
2023-03-13T08:00:05.504Z,28.37
2023-03-13T08:01:04.895Z,28.58
2023-03-13T08:02:05.361Z,28.93
2023-03-13T08:03:05.441Z,29.16
2023-03-13T08:04:05.592Z,29.30
2023-03-13T08:05:05.394Z,29.50
2023-03-13T08:06:05.087Z,29.71
2023-03-13T08:07:05.421Z,29.98
2023-03-13T08:08:05.301Z,30.13
2023-03-13T08:09:05.136Z,30.40
2023-03-13T08:10:05.148Z,30.48
2023-03-13T08:11:05.221Z,30.67
2023-03-13T08:12:05.320Z,30.83
2023-03-13T08:13:05.158Z,31.04
2023-03-13T08:14:05.155Z,31.12
2023-03-13T08:15:05.158Z,31.35
2023-03-13T08:16:05.371Z,31.50
2023-03-13T08:17:05.189Z,31.84
2023-03-13T08:18:05.174Z,31.93
2023-03-13T08:19:05.184Z,32.05
2023-03-13T08:20:05.132Z,32.12
2023-03-13T08:21:05.135Z,32.47
2023-03-13T08:22:05.126Z,32.47
2023-03-13T08:23:05.116Z,32.36
2023-03-13T08:24:05.118Z,32.46
2023-03-13T08:25:05.101Z,32.36
2023-03-13T08:26:05.092Z,32.29
2023-03-13T08:27:05.095Z,32.21
2023-03-13T08:28:05.095Z,32.12
2023-03-13T08:29:05.094Z,32.04
2023-03-13T08:30:05.114Z,32.03
2023-03-13T08:31:05.154Z,31.85
2023-03-13T08:32:05.103Z,31.83
2023-03-13T08:33:07.528Z,31.72
2023-03-13T08:34:05.335Z,31.73
2023-03-13T08:35:05.353Z,31.66
2023-03-13T08:36:05.415Z,31.66
2023-03-13T08:37:05.333Z,31.62
2023-03-13T08:38:05.338Z,31.61
2023-03-13T08:39:05.359Z,31.51
2023-03-13T08:40:05.370Z,31.46
2023-03-13T08:41:05.374Z,31.43
2023-03-13T08:42:05.385Z,31.35
2023-03-13T08:43:05.395Z,31.31
2023-03-13T08:44:05.405Z,31.28
2023-03-13T08:45:05.429Z,31.23
2023-03-13T08:46:05.466Z,31.24
2023-03-13T08:47:05.465Z,31.20
2023-03-13T08:48:06.334Z,31.13
2023-03-13T08:49:05.512Z,31.16
2023-03-13T08:50:05.522Z,31.15
2023-03-13T08:51:05.542Z,31.15
2023-03-13T08:52:05.560Z,31.06
2023-03-13T08:53:05.579Z,31.05
2023-03-13T08:54:05.603Z,31.01
2023-03-13T08:55:05.622Z,30.93
2023-03-13T08:56:05.645Z,30.89
2023-03-13T08:57:05.681Z,30.90
2023-03-13T08:58:05.694Z,30.90
2023-03-13T08:59:05.728Z,30.86
2023-03-13T09:00:05.738Z,30.84
2023-03-13T09:01:06.350Z,30.84
2023-03-13T09:02:05.810Z,30.83
2023-03-13T09:03:05.825Z,30.87
2023-03-13T09:04:05.897Z,30.80
2023-03-13T09:05:05.855Z,30.78
2023-03-13T09:06:05.873Z,30.75
2023-03-13T09:07:05.902Z,30.73
2023-03-13T09:08:05.915Z,30.76
2023-03-13T09:09:05.944Z,30.65
2023-03-13T09:10:05.951Z,30.67
2023-03-13T09:11:05.921Z,30.64
2023-03-13T09:12:05.927Z,30.56
2023-03-13T09:13:05.974Z,30.64
2023-03-13T09:14:05.985Z,30.72
2023-03-13T09:15:06.013Z,29.70
2023-03-13T16:50:10.635Z,32.83
2023-03-13T16:51:10.672Z,32.82
2023-03-13T16:52:10.720Z,32.82
2023-03-13T16:53:10.726Z,32.80
2023-03-13T16:54:10.764Z,32.82
2023-03-13T16:55:10.792Z,32.81
2023-03-13T16:56:10.830Z,32.80
2023-03-13T16:57:10.865Z,32.78
2023-03-13T16:58:10.912Z,32.82
2023-03-13T16:59:10.947Z,32.78
2023-03-13T17:00:10.976Z,32.77
2023-03-13T17:01:11.041Z,32.80
2023-03-13T17:02:11.058Z,32.85
2023-03-13T17:03:11.093Z,32.82
2023-03-13T17:04:11.176Z,32.79
2023-03-13T17:05:11.171Z,32.80
2023-03-13T17:06:11.272Z,32.81
2023-03-13T17:07:11.255Z,32.78
2023-03-13T17:08:11.306Z,32.82
2023-03-13T17:09:11.320Z,32.81
2023-03-13T17:10:11.364Z,32.75
2023-03-13T17:11:11.392Z,32.82
2023-03-13T17:12:11.435Z,32.79
2023-03-13T17:13:11.475Z,32.82
2023-03-13T17:14:11.505Z,32.79
2023-03-13T17:15:11.540Z,32.83
2023-03-13T17:16:11.590Z,32.75
2023-03-13T17:17:11.623Z,32.76
2023-03-13T17:18:11.659Z,32.82
2023-03-13T17:19:11.705Z,32.80
2023-03-13T17:20:12.595Z,32.84
2023-03-13T17:21:12.378Z,32.80
2023-03-13T17:22:11.821Z,32.80
2023-03-13T17:23:11.864Z,32.83
2023-03-13T17:24:11.903Z,32.80
2023-03-13T17:25:11.937Z,32.81
2023-03-13T17:26:11.986Z,32.77
2023-03-13T17:27:12.012Z,32.79
2023-03-13T17:28:12.053Z,32.82
2023-03-13T17:29:12.091Z,32.81
2023-03-13T17:30:12.228Z,32.84
2023-03-13T17:31:12.201Z,32.77
2023-03-13T17:32:12.204Z,32.80
2023-03-13T17:33:12.244Z,32.79
2023-03-13T17:34:12.282Z,32.77
2023-03-13T17:35:12.351Z,32.77
2023-03-13T17:36:12.380Z,32.74
2023-03-13T17:37:12.406Z,32.73
2023-03-13T17:38:12.446Z,32.79
2023-03-13T17:39:12.473Z,32.79
2023-03-13T17:40:12.509Z,32.74
2023-03-13T17:41:12.562Z,32.74
2023-03-13T17:42:12.594Z,32.80
2023-03-13T17:43:12.632Z,32.79
2023-03-13T17:44:12.672Z,32.74
2023-03-13T17:45:12.713Z,32.68
2023-03-13T17:46:12.846Z,32.72
2023-03-13T17:47:12.785Z,32.76
2023-03-13T17:48:12.826Z,32.71
2023-03-13T17:49:12.877Z,32.74
2023-03-13T17:50:12.911Z,32.76
2023-03-13T17:51:12.958Z,32.71
2023-03-13T17:52:12.991Z,32.75
2023-03-13T17:53:13.030Z,32.71
2023-03-13T17:54:15.481Z,32.71
2023-03-13T17:55:13.059Z,32.71
2023-03-13T17:56:13.037Z,32.74
2023-03-13T17:57:13.018Z,32.74
2023-03-13T17:58:13.006Z,32.74
2023-03-13T17:59:12.991Z,32.71
2023-03-13T18:00:12.977Z,32.75
2023-03-13T18:01:12.984Z,32.73
2023-03-13T18:02:13.055Z,32.75
2023-03-13T18:03:12.986Z,32.73
2023-03-13T18:04:12.938Z,32.68
2023-03-13T18:05:12.902Z,32.74
2023-03-13T18:06:12.886Z,32.73
2023-03-13T18:07:12.912Z,32.70
2023-03-13T18:08:12.869Z,32.74
2023-03-13T18:09:12.859Z,32.71
2023-03-13T18:10:12.847Z,32.71
2023-03-13T18:11:12.829Z,32.75
2023-03-13T18:12:12.817Z,32.75
2023-03-13T18:13:12.812Z,32.73
2023-03-13T18:14:12.792Z,32.70
2023-03-13T18:15:12.786Z,32.73
2023-03-13T18:16:12.793Z,32.70
2023-03-13T18:17:12.763Z,32.69
2023-03-13T18:18:12.734Z,32.72
2023-03-13T18:19:12.723Z,32.72
2023-03-13T18:20:12.717Z,32.70
2023-03-13T18:21:12.687Z,32.70
2023-03-13T18:22:12.689Z,32.73
2023-03-13T18:23:12.653Z,32.67
2023-03-13T18:24:12.635Z,32.70
2023-03-13T18:25:12.624Z,32.71
2023-03-13T18:26:12.612Z,32.68
2023-03-13T18:27:12.611Z,32.68
2023-03-13T18:28:12.580Z,32.75
2023-03-13T18:29:12.568Z,32.68
2023-03-13T18:30:12.554Z,32.72
2023-03-13T18:31:12.575Z,32.70
2023-03-13T18:32:12.528Z,32.69
2023-03-13T18:33:12.509Z,32.69
2023-03-13T18:34:12.493Z,32.68
2023-03-13T18:35:12.486Z,32.64
2023-03-13T18:36:12.469Z,32.66
2023-03-13T18:37:12.519Z,32.68
2023-03-13T18:38:12.571Z,32.68
2023-03-13T18:39:12.624Z,32.62
2023-03-13T18:40:12.678Z,32.70
2023-03-13T18:41:12.718Z,32.66
2023-03-13T18:42:12.755Z,32.68
2023-03-13T18:43:12.809Z,32.69
2023-03-13T18:44:12.865Z,32.66
2023-03-13T18:45:12.901Z,32.63
2023-03-13T18:46:13.044Z,32.66
2023-03-13T18:47:13.030Z,32.64
2023-03-13T18:48:13.065Z,32.66
2023-03-13T18:49:13.109Z,32.60
2023-03-13T18:50:13.172Z,32.62
2023-03-13T18:51:13.204Z,32.63
2023-03-13T18:52:13.264Z,32.62
2023-03-13T18:53:13.298Z,32.62
2023-03-13T18:54:13.338Z,32.70
2023-03-13T18:55:13.404Z,32.62
2023-03-13T18:56:13.451Z,32.62
2023-03-13T18:57:13.498Z,32.66
2023-03-13T18:58:13.544Z,32.63
2023-03-13T18:59:13.597Z,32.60
2023-03-13T19:00:13.652Z,32.63
2023-03-13T19:01:13.746Z,32.60
2023-03-13T19:02:13.828Z,32.57
2023-03-13T19:03:13.811Z,32.59
2023-03-13T19:04:13.860Z,32.61
2023-03-13T19:05:13.922Z,32.60
2023-03-13T19:06:13.962Z,32.61
2023-03-13T19:07:14.025Z,32.64
2023-03-13T19:08:14.090Z,32.57
2023-03-13T19:09:37.796Z,32.61
2023-03-13T19:10:15.165Z,32.61
2023-03-13T19:11:14.119Z,32.61
2023-03-13T19:12:14.100Z,32.53
2023-03-13T19:13:14.103Z,32.54
2023-03-13T19:14:14.087Z,32.60
2023-03-13T19:15:14.090Z,32.61
2023-03-13T19:16:14.104Z,32.57
2023-03-13T19:17:14.077Z,32.61
2023-03-13T19:18:14.081Z,32.55
2023-03-13T19:19:14.045Z,32.57
2023-03-13T19:20:14.098Z,32.54
2023-03-13T19:21:14.161Z,32.57
2023-03-13T19:22:14.221Z,32.50
2023-03-13T19:23:14.280Z,32.56
2023-03-13T19:24:14.339Z,32.53
2023-03-13T19:25:14.388Z,32.53
2023-03-13T19:26:14.444Z,32.57
2023-03-13T19:27:14.523Z,32.51
2023-03-13T19:28:14.580Z,32.55
2023-03-13T19:29:14.644Z,32.53
2023-03-13T19:30:14.699Z,32.51
2023-03-13T19:31:16.401Z,32.55
2023-03-13T19:32:14.761Z,32.54
2023-03-13T19:33:14.728Z,32.51
2023-03-13T19:34:14.746Z,32.50
2023-03-13T19:35:14.725Z,32.51
2023-03-13T19:36:14.734Z,32.53
2023-03-13T19:37:14.732Z,32.55
2023-03-13T19:38:14.683Z,32.50
2023-03-13T19:39:14.662Z,32.48
2023-03-13T19:40:14.651Z,32.51
2023-03-13T19:41:14.646Z,32.50
2023-03-13T19:42:14.637Z,32.50
2023-03-13T19:43:14.619Z,32.50
2023-03-13T19:44:14.611Z,32.51
2023-03-13T19:45:14.603Z,32.51
2023-03-13T19:46:14.641Z,32.46
2023-03-13T19:47:14.616Z,32.47
2023-03-13T19:48:14.581Z,32.51
2023-03-13T19:49:14.584Z,32.47
2023-03-13T19:50:14.549Z,32.43
2023-03-13T19:51:14.607Z,32.50
2023-03-13T19:52:14.553Z,32.50
2023-03-13T19:53:14.528Z,32.47
2023-03-13T19:54:14.503Z,32.42
2023-03-13T19:55:14.492Z,32.44
2023-03-13T19:56:14.459Z,32.44
2023-03-13T19:57:14.440Z,32.48
2023-03-13T19:58:14.423Z,32.42
2023-03-13T19:59:14.424Z,32.46
2023-03-13T20:00:14.410Z,32.47
2023-03-13T20:01:17.420Z,32.41
2023-03-13T20:02:14.493Z,32.40
2023-03-13T20:03:14.394Z,32.40
2023-03-13T20:04:14.643Z,32.41
2023-03-13T20:05:14.374Z,32.40
2023-03-13T20:06:14.366Z,32.38
2023-03-13T20:07:14.357Z,32.38
2023-03-13T20:08:14.345Z,32.41
2023-03-13T20:09:14.333Z,32.40
2023-03-13T20:10:14.329Z,32.37
2023-03-13T20:11:14.321Z,32.38
2023-03-13T20:12:14.326Z,32.37
2023-03-13T20:13:14.311Z,32.40
2023-03-13T20:14:14.357Z,32.40
2023-03-13T20:15:14.301Z,32.40
2023-03-13T20:16:14.341Z,32.41
2023-03-13T20:17:14.285Z,32.42
2023-03-13T20:18:14.276Z,32.40
2023-03-13T20:19:14.260Z,32.35
2023-03-13T20:20:14.245Z,32.34
2023-03-13T20:21:14.248Z,32.34
2023-03-13T20:22:14.234Z,32.34
2023-03-13T20:23:14.226Z,32.34
2023-03-13T20:24:14.212Z,32.38
2023-03-13T20:25:14.235Z,32.38
2023-03-13T20:26:14.215Z,32.35
2023-03-13T20:27:14.199Z,32.37
2023-03-13T20:28:14.194Z,32.32
2023-03-13T20:29:14.186Z,32.35
2023-03-13T20:30:14.190Z,32.34
2023-03-13T20:31:14.206Z,32.31
2023-03-13T20:32:14.166Z,32.37
2023-03-13T20:33:14.206Z,32.32
2023-03-13T20:34:14.207Z,32.28
2023-03-13T20:35:14.297Z,32.31
2023-03-13T20:36:14.330Z,32.34
2023-03-13T20:37:14.417Z,32.31
2023-03-13T20:38:14.467Z,32.27
2023-03-13T20:39:14.524Z,32.34
2023-03-13T20:40:14.585Z,32.31
2023-03-13T20:41:14.656Z,32.28
2023-03-13T20:42:14.711Z,32.27
2023-03-13T20:43:14.784Z,32.31
2023-03-13T20:44:14.846Z,32.27
2023-03-13T20:45:14.909Z,32.28
2023-03-13T20:46:14.999Z,32.27
2023-03-13T20:47:15.037Z,32.30
2023-03-13T22:52:20.666Z,31.85
2023-03-13T22:53:20.706Z,31.86
2023-03-13T22:54:20.771Z,31.83
2023-03-13T22:55:20.844Z,31.88
2023-03-13T22:56:20.859Z,31.88
2023-03-13T22:57:20.914Z,31.87
2023-03-13T22:58:21.042Z,31.86
2023-03-13T22:59:21.035Z,31.86
2023-03-13T23:00:21.117Z,31.83
2023-03-13T23:01:21.246Z,31.87
2023-03-13T23:02:21.188Z,31.79
2023-03-13T23:03:21.224Z,31.84
2023-03-13T23:04:21.279Z,31.84
2023-03-13T23:05:21.340Z,31.81
2023-03-13T23:06:21.395Z,31.84
2023-03-13T23:07:21.453Z,31.83
2023-03-13T23:08:21.513Z,31.83
2023-03-13T23:09:21.581Z,31.87
2023-03-13T23:10:21.645Z,31.81
2023-03-13T23:11:21.697Z,31.84
2023-03-13T23:12:21.765Z,31.78
2023-03-13T23:13:21.823Z,31.78
2023-03-13T23:14:21.887Z,31.80
2023-03-13T23:15:22.600Z,31.80
2023-03-13T23:16:22.006Z,31.77
2023-03-13T23:17:22.050Z,31.81
2023-03-13T23:18:22.093Z,31.84
2023-03-13T23:19:22.117Z,31.83
2023-03-13T23:20:22.141Z,31.77
2023-03-13T23:21:22.166Z,31.81
2023-03-13T23:22:22.288Z,31.81
2023-03-13T23:23:22.284Z,31.80
2023-03-13T23:24:22.333Z,31.76
2023-03-13T23:25:22.351Z,31.81
2023-03-13T23:26:22.398Z,31.78
2023-03-13T23:27:22.468Z,31.80
2023-03-13T23:28:22.518Z,31.78
2023-03-13T23:29:22.536Z,31.77
2023-03-13T23:30:22.569Z,31.80
2023-03-13T23:31:22.602Z,31.77
2023-03-13T23:32:22.710Z,31.74
2023-03-13T23:33:22.671Z,31.74
2023-03-13T23:34:22.697Z,31.82
2023-03-13T23:35:22.728Z,31.77
2023-03-13T23:36:22.754Z,31.77
2023-03-13T23:37:22.792Z,31.76
